Time;durP1;ratioP1;P1;durP2;ratioP2;P2;SDS_P1;SDS_P2;PMS_P1;PMS_P2;Temp;Humidity;BMP_temperature;BMP_pressure;BME280_temperature;BME280_humidity;BME280_pressure;Samples;Min_cycle;Max_cycle;Signal;HPM_P1;HPM_P2
2022/01/11 00:01:04;;;;;;;45.20;21.00;;;-3.40;99.90;;;;;;5182140;27;20139;-65
2022/01/11 00:03:33;;;;;;;50.20;20.97;;;-3.40;99.90;;;;;;5181662;27;20143;-65
2022/01/11 00:08:53;;;;;;;53.47;21.67;;;-3.40;99.90;;;;;;5182272;27;20154;-65
2022/01/11 00:11:20;;;;;;;48.33;21.60;;;-3.40;99.90;;;;;;5181584;27;20139;-66
2022/01/11 00:13:48;;;;;;;51.90;21.53;;;-3.40;99.90;;;;;;5181240;27;20154;-65
2022/01/11 00:16:18;;;;;;;52.20;21.47;;;-3.40;99.90;;;;;;5182061;27;20198;-66
2022/01/11 00:18:45;;;;;;;50.03;21.73;;;-3.40;99.90;;;;;;5201374;27;20120;-66
2022/01/11 00:21:16;;;;;;;51.60;22.60;;;-3.40;99.90;;;;;;5182709;27;20482;-66
2022/01/11 00:26:10;;;;;;;50.33;21.83;;;-3.40;99.90;;;;;;5181899;27;20493;-66
2022/01/11 00:28:38;;;;;;;52.60;22.60;;;-3.40;99.90;;;;;;5181722;27;20151;-65
2022/01/11 00:31:07;;;;;;;50.10;21.60;;;-3.40;99.90;;;;;;5180770;27;20502;-66
2022/01/11 00:33:39;;;;;;;51.70;21.97;;;-3.40;99.90;;;;;;5182529;27;20151;-66
2022/01/11 00:36:07;;;;;;;53.33;23.00;;;-3.40;99.90;;;;;;5200490;27;20453;-65
2022/01/11 00:38:36;;;;;;;49.50;21.23;;;-3.50;99.90;;;;;;5181922;27;20166;-66
2022/01/11 00:41:06;;;;;;;51.47;21.70;;;-3.50;99.90;;;;;;5181270;27;20154;-65
2022/01/11 00:43:35;;;;;;;56.77;22.77;;;-3.60;99.90;;;;;;5183038;27;20154;-65
2022/01/11 00:46:05;;;;;;;50.90;21.63;;;-3.60;99.90;;;;;;5181279;27;20179;-65
2022/01/11 00:48:35;;;;;;;49.23;22.00;;;-3.60;99.90;;;;;;5183964;27;20131;-65
2022/01/11 00:51:03;;;;;;;49.97;22.67;;;-3.60;99.90;;;;;;5181375;27;20147;-65
2022/01/11 00:53:30;;;;;;;49.73;22.00;;;-3.60;99.90;;;;;;5180753;27;20171;-66
2022/01/11 00:56:00;;;;;;;53.07;22.97;;;-3.60;99.90;;;;;;5183257;27;20206;-65
2022/01/11 00:58:28;;;;;;;54.83;22.77;;;-3.60;99.90;;;;;;5182237;27;20189;-66
2022/01/11 01:00:55;;;;;;;54.20;23.37;;;-3.60;99.90;;;;;;5181328;27;20157;-65
2022/01/11 01:03:24;;;;;;;52.97;22.23;;;-3.70;99.90;;;;;;5181103;27;20148;-66
2022/01/11 01:05:52;;;;;;;49.70;21.73;;;-3.70;99.90;;;;;;5180893;27;20135;-66
2022/01/11 01:08:20;;;;;;;54.63;22.87;;;-3.70;99.90;;;;;;5181177;27;20163;-65
2022/01/11 01:10:48;;;;;;;52.87;22.00;;;-3.60;99.90;;;;;;5183354;27;20185;-65
2022/01/11 01:13:19;;;;;;;53.60;21.90;;;-3.70;99.90;;;;;;5180650;27;20484;-66
2022/01/11 01:15:48;;;;;;;53.87;22.77;;;-3.60;99.90;;;;;;5181756;27;20152;-66
2022/01/11 01:18:20;;;;;;;55.87;22.20;;;-3.60;99.90;;;;;;5182368;27;20179;-66
2022/01/11 01:20:49;;;;;;;52.13;22.23;;;-3.60;99.90;;;;;;5117544;28;20183;-65
2022/01/11 01:23:18;;;;;;;54.20;22.73;;;-3.60;99.90;;;;;;5118052;28;20156;-65
2022/01/11 01:25:46;;;;;;;51.23;22.60;;;-3.70;99.90;;;;;;5118400;28;20179;-66
2022/01/11 01:28:18;;;;;;;52.30;22.97;;;-3.80;99.90;;;;;;5117325;27;20149;-66
2022/01/11 01:30:47;;;;;;;55.73;22.97;;;-3.80;99.90;;;;;;5117734;28;20483;-66
2022/01/11 01:33:14;;;;;;;52.10;21.80;;;-3.70;99.90;;;;;;5117723;28;20517;-66
2022/01/11 01:35:46;;;;;;;55.77;23.37;;;-3.70;99.90;;;;;;5118552;28;20171;-66
2022/01/11 01:38:13;;;;;;;55.47;23.87;;;-3.70;99.90;;;;;;5131625;27;20147;-66
2022/01/11 01:40:45;;;;;;;51.23;22.27;;;-3.70;99.90;;;;;;5181006;27;20135;-66
2022/01/11 01:43:13;;;;;;;51.80;22.03;;;-3.70;99.90;;;;;;5180631;27;20150;-66
2022/01/11 01:45:44;;;;;;;53.60;23.33;;;-3.80;99.90;;;;;;5181351;27;20254;-66
2022/01/11 01:48:15;;;;;;;51.10;22.67;;;-3.80;99.90;;;;;;5200310;27;20175;-66
2022/01/11 01:50:44;;;;;;;54.20;23.53;;;-3.90;99.90;;;;;;5199855;27;20127;-66
2022/01/11 01:53:14;;;;;;;51.37;22.90;;;-3.80;99.90;;;;;;5200709;27;20216;-66
2022/01/11 01:55:43;;;;;;;54.20;23.60;;;-3.80;99.90;;;;;;5182466;27;20142;-66
2022/01/11 01:58:14;;;;;;;54.53;23.27;;;-3.90;99.90;;;;;;5180907;27;20155;-66
2022/01/11 02:00:55;;;;;;;52.43;22.87;;;-3.90;99.90;;;;;;5180649;27;20138;-66
2022/01/11 02:03:26;;;;;;;53.23;23.10;;;-3.90;99.90;;;;;;5180852;27;20140;-66
2022/01/11 02:05:56;;;;;;;54.00;23.20;;;-3.90;99.90;;;;;;5180897;27;20186;-66
2022/01/11 02:08:25;;;;;;;58.33;24.10;;;-3.90;99.90;;;;;;5181023;27;20195;-65
2022/01/11 02:10:56;;;;;;;51.10;23.40;;;-4.00;99.90;;;;;;5180689;27;20143;-66
2022/01/11 02:13:23;;;;;;;56.70;23.83;;;-4.00;99.90;;;;;;5180907;27;20147;-66
2022/01/11 02:15:51;;;;;;;53.57;23.33;;;-3.90;99.90;;;;;;5180748;27;20191;-66
2022/01/11 02:18:23;;;;;;;52.67;24.60;;;-3.90;99.90;;;;;;5180449;27;20190;-66
2022/01/11 02:20:52;;;;;;;56.80;24.20;;;-4.00;99.90;;;;;;5180712;27;20194;-66
2022/01/11 02:23:20;;;;;;;53.23;23.27;;;-4.00;99.90;;;;;;5180338;27;20147;-66
2022/01/11 02:25:48;;;;;;;54.17;23.30;;;-4.00;99.90;;;;;;5181516;27;20147;-66
2022/01/11 02:28:18;;;;;;;57.60;24.00;;;-4.00;99.90;;;;;;5200270;27;20115;-66
2022/01/11 02:30:46;;;;;;;53.47;23.50;;;-4.00;99.90;;;;;;5180715;27;20158;-66
2022/01/11 02:33:32;;;;;;;54.67;23.73;;;-4.00;99.90;;;;;;5181560;27;20182;-66
2022/01/11 02:36:08;;;;;;;53.27;23.57;;;-4.00;99.90;;;;;;5181756;27;20162;-66
2022/01/11 02:38:36;;;;;;;52.50;23.77;;;-4.00;99.90;;;;;;5201027;27;20182;-66
2022/01/11 02:41:07;;;;;;;56.70;23.17;;;-4.00;99.90;;;;;;5181906;27;20143;-66
2022/01/11 02:43:47;;;;;;;60.83;24.33;;;-4.00;99.90;;;;;;5182529;27;20175;-66
2022/01/11 02:46:19;;;;;;;55.67;23.87;;;-4.00;99.90;;;;;;5201137;27;20187;-66
2022/01/11 02:48:51;;;;;;;54.13;23.43;;;-3.90;99.90;;;;;;5181936;27;20177;-66
2022/01/11 02:51:19;;;;;;;52.57;23.30;;;-4.00;99.90;;;;;;5181761;27;20177;-66
2022/01/11 02:53:49;;;;;;;56.47;24.00;;;-4.00;99.90;;;;;;5181642;27;20146;-66
2022/01/11 02:56:19;;;;;;;52.87;23.73;;;-4.00;99.90;;;;;;5182556;27;20193;-66
2022/01/11 02:58:47;;;;;;;58.87;24.17;;;-4.00;99.90;;;;;;5201250;27;20163;-66
2022/01/11 03:01:19;;;;;;;55.70;23.00;;;-4.00;99.90;;;;;;5181536;27;20213;-66
2022/01/11 03:03:47;;;;;;;58.33;23.63;;;-4.00;99.90;;;;;;5181530;27;20188;-66
2022/01/11 03:06:14;;;;;;;58.97;23.87;;;-4.10;99.90;;;;;;5181509;27;20151;-66
2022/01/11 03:08:46;;;;;;;62.00;24.13;;;-4.10;99.90;;;;;;5200780;27;20183;-66
2022/01/11 03:11:16;;;;;;;55.83;23.57;;;-4.10;99.90;;;;;;5181799;27;20147;-66
2022/01/11 03:13:47;;;;;;;54.80;23.80;;;-4.10;99.90;;;;;;5181602;27;20185;-66
2022/01/11 03:16:20;;;;;;;51.43;23.50;;;-4.10;99.90;;;;;;5181431;27;20178;-66
2022/01/11 03:18:50;;;;;;;54.53;23.23;;;-4.10;99.90;;;;;;5182234;27;20144;-66
2022/01/11 03:21:18;;;;;;;54.37;23.97;;;-4.10;99.90;;;;;;5183019;27;20154;-66
2022/01/11 03:23:45;;;;;;;61.23;24.33;;;-4.00;99.90;;;;;;5181491;27;20206;-66
2022/01/11 03:26:12;;;;;;;57.60;24.20;;;-4.00;99.90;;;;;;5182234;27;20159;-66
2022/01/11 03:28:39;;;;;;;56.13;23.33;;;-4.00;99.90;;;;;;5182110;27;20182;-66
2022/01/11 03:31:06;;;;;;;54.63;24.23;;;-4.10;99.90;;;;;;5181803;27;20189;-66
2022/01/11 03:33:34;;;;;;;56.03;23.00;;;-4.00;99.90;;;;;;5200785;27;20128;-66
2022/01/11 03:36:01;;;;;;;54.33;23.17;;;-4.00;99.90;;;;;;5181460;27;20181;-66
2022/01/11 03:38:30;;;;;;;58.03;23.47;;;-3.90;99.90;;;;;;5181342;27;20147;-65
2022/01/11 03:40:57;;;;;;;54.40;23.63;;;-3.90;99.90;;;;;;5181692;27;20150;-66
2022/01/11 03:43:26;;;;;;;55.80;23.93;;;-4.00;99.90;;;;;;5181540;27;20171;-66
2022/01/11 03:45:53;;;;;;;54.63;23.73;;;-4.00;99.90;;;;;;5200969;27;20179;-66
2022/01/11 03:48:23;;;;;;;54.23;23.03;;;-4.10;99.90;;;;;;5181585;27;20144;-66
2022/01/11 03:50:55;;;;;;;55.90;24.07;;;-4.00;99.90;;;;;;5182414;27;20143;-66
2022/01/11 03:53:32;;;;;;;53.50;22.37;;;-4.10;99.90;;;;;;5181290;27;20189;-66
2022/01/11 03:56:11;;;;;;;50.30;22.63;;;-4.10;99.90;;;;;;5200332;27;20195;-66
2022/01/11 03:58:39;;;;;;;55.17;22.53;;;-4.20;99.90;;;;;;5183758;27;20151;-66
2022/01/11 04:01:06;;;;;;;50.17;23.30;;;-4.10;99.90;;;;;;5181097;27;20139;-66
2022/01/11 04:03:33;;;;;;;54.27;22.50;;;-4.10;99.90;;;;;;5182156;27;20197;-66
2022/01/11 04:06:00;;;;;;;52.57;23.30;;;-4.10;99.90;;;;;;5181233;27;20159;-66
2022/01/11 04:08:27;;;;;;;56.97;24.30;;;-4.10;99.90;;;;;;5181025;27;20159;-66
2022/01/11 04:10:54;;;;;;;52.43;22.83;;;-4.10;99.90;;;;;;5182373;27;20147;-66
2022/01/11 04:13:22;;;;;;;52.50;22.00;;;-4.10;99.90;;;;;;5180895;27;20170;-66
2022/01/11 04:15:50;;;;;;;55.03;23.43;;;-4.10;99.90;;;;;;5182046;27;20202;-66
2022/01/11 04:18:17;;;;;;;54.40;22.57;;;-4.20;99.90;;;;;;5201529;27;20159;-65
2022/01/11 04:20:47;;;;;;;55.37;23.80;;;-4.20;99.90;;;;;;5182684;27;20182;-66
2022/01/11 04:23:14;;;;;;;56.97;23.80;;;-4.20;99.90;;;;;;5180971;27;20147;-66
2022/01/11 04:25:41;;;;;;;56.40;23.13;;;-4.30;99.90;;;;;;5182222;27;20147;-66
2022/01/11 04:28:09;;;;;;;54.30;23.37;;;-4.30;99.90;;;;;;5201074;27;20171;-65
2022/01/11 04:30:37;;;;;;;54.53;23.10;;;-4.40;99.90;;;;;;5200835;27;20416;-66
2022/01/11 04:33:05;;;;;;;52.83;23.43;;;-4.40;99.90;;;;;;5201487;27;20238;-66
2022/01/11 04:35:32;;;;;;;55.00;22.77;;;-4.50;99.90;;;;;;5183183;27;20205;-65
2022/01/11 04:38:00;;;;;;;56.70;23.20;;;-4.50;99.90;;;;;;5181293;27;20164;-66
2022/01/11 04:40:28;;;;;;;56.70;24.27;;;-4.50;99.90;;;;;;5181411;27;20143;-66
2022/01/11 04:42:55;;;;;;;59.33;24.53;;;-4.50;99.90;;;;;;5181486;27;20136;-66
2022/01/11 04:45:22;;;;;;;56.43;23.43;;;-4.60;99.90;;;;;;5180775;27;20151;-67
2022/01/11 04:47:56;;;;;;;54.13;23.40;;;-4.60;99.90;;;;;;5181451;27;20204;-65
2022/01/11 04:50:27;;;;;;;54.57;23.63;;;-4.60;99.90;;;;;;5180769;27;20206;-66
2022/01/11 04:52:55;;;;;;;52.53;23.63;;;-4.60;99.90;;;;;;5181149;27;20144;-65
2022/01/11 04:55:23;;;;;;;55.13;24.03;;;-4.60;99.90;;;;;;5182064;27;20147;-66
2022/01/11 04:57:50;;;;;;;52.30;23.37;;;-4.60;99.90;;;;;;5181949;27;20182;-66
2022/01/11 05:00:20;;;;;;;55.57;23.33;;;-4.60;99.90;;;;;;5181126;27;20190;-66
2022/01/11 05:02:50;;;;;;;61.60;23.80;;;-4.50;99.90;;;;;;5183452;27;20199;-66
2022/01/11 05:05:18;;;;;;;57.90;24.33;;;-4.50;99.90;;;;;;5180708;27;20147;-66
2022/01/11 05:07:46;;;;;;;55.53;24.23;;;-4.50;99.90;;;;;;5180917;27;20152;-66
2022/01/11 05:10:14;;;;;;;55.00;23.67;;;-4.40;99.90;;;;;;5182508;27;20195;-66
2022/01/11 05:12:41;;;;;;;58.17;24.40;;;-4.40;99.90;;;;;;5200023;27;20151;-66
2022/01/11 05:15:10;;;;;;;53.60;24.20;;;-4.40;99.90;;;;;;5181073;27;20204;-65
2022/01/11 05:17:39;;;;;;;55.03;23.80;;;-4.40;99.90;;;;;;5181492;27;20147;-65
2022/01/11 05:20:10;;;;;;;52.77;24.03;;;-4.40;99.90;;;;;;5181763;27;20134;-66
2022/01/11 05:22:38;;;;;;;55.27;23.90;;;-4.30;99.90;;;;;;5181720;27;20143;-65
2022/01/11 05:25:11;;;;;;;52.93;23.37;;;-4.30;99.90;;;;;;5181899;27;20139;-66
2022/01/11 05:27:38;;;;;;;52.93;23.20;;;-4.20;99.90;;;;;;5180733;27;20162;-65
2022/01/11 05:30:07;;;;;;;57.50;23.77;;;-4.20;99.90;;;;;;5200427;27;20115;-66
2022/01/11 05:32:35;;;;;;;58.10;23.67;;;-4.20;99.90;;;;;;5180625;27;20159;-66
2022/01/11 05:35:05;;;;;;;58.60;24.87;;;-4.20;99.90;;;;;;5200276;27;20124;-65
2022/01/11 05:37:33;;;;;;;58.90;24.93;;;-4.20;99.90;;;;;;5181353;27;20146;-66
2022/01/11 05:40:00;;;;;;;60.80;24.63;;;-4.30;99.90;;;;;;5201598;27;20158;-65
2022/01/11 05:42:28;;;;;;;62.90;25.37;;;-4.30;99.90;;;;;;5182126;27;20143;-66
2022/01/11 05:44:56;;;;;;;63.13;25.50;;;-4.20;99.90;;;;;;5182955;27;20148;-66
2022/01/11 05:47:23;;;;;;;59.73;24.77;;;-4.20;99.90;;;;;;5181443;27;20163;-66
2022/01/11 05:49:51;;;;;;;61.40;25.33;;;-4.30;99.90;;;;;;5180721;27;20253;-66
2022/01/11 05:52:18;;;;;;;69.57;26.90;;;-4.30;99.90;;;;;;5201193;27;20126;-66
2022/01/11 05:54:45;;;;;;;64.40;26.43;;;-4.20;99.90;;;;;;5182887;27;20516;-66
2022/01/11 05:57:12;;;;;;;67.07;26.90;;;-4.30;99.90;;;;;;5182881;27;20144;-66
2022/01/11 05:59:40;;;;;;;67.50;27.57;;;-4.30;99.90;;;;;;5180981;27;20154;-66
2022/01/11 06:02:07;;;;;;;72.30;27.23;;;-4.30;99.90;;;;;;5183035;27;20139;-65
2022/01/11 06:04:34;;;;;;;67.07;26.53;;;-4.20;99.90;;;;;;5181146;27;20191;-66
2022/01/11 06:07:02;;;;;;;69.07;27.47;;;-4.20;99.90;;;;;;5180929;27;20426;-66
2022/01/11 06:09:29;;;;;;;68.27;27.77;;;-4.20;99.90;;;;;;5201612;27;20168;-66
2022/01/11 06:11:56;;;;;;;77.40;28.30;;;-4.10;99.90;;;;;;5182495;27;20182;-66
2022/01/11 06:14:24;;;;;;;75.13;27.83;;;-4.10;99.90;;;;;;5182165;27;20150;-66
2022/01/11 06:16:51;;;;;;;72.80;28.13;;;-4.20;99.90;;;;;;5181662;27;20490;-65
2022/01/11 06:19:26;;;;;;;73.77;27.40;;;-4.30;99.90;;;;;;5201645;27;20177;-66
2022/01/11 06:21:53;;;;;;;70.57;27.20;;;-4.20;99.90;;;;;;5202092;27;20159;-66
2022/01/11 06:24:21;;;;;;;66.27;27.10;;;-4.20;99.90;;;;;;5182373;27;20205;-66
2022/01/11 06:26:48;;;;;;;69.93;27.80;;;-4.20;99.90;;;;;;5181909;27;20482;-66
2022/01/11 06:29:15;;;;;;;69.70;26.73;;;-4.20;99.90;;;;;;5182075;27;20143;-66
2022/01/11 06:31:43;;;;;;;72.50;27.77;;;-4.20;99.90;;;;;;5181931;27;20474;-66
2022/01/11 06:34:10;;;;;;;74.53;27.77;;;-4.20;99.90;;;;;;5201700;27;20148;-66
2022/01/11 06:36:37;;;;;;;66.13;26.17;;;-4.30;99.90;;;;;;5181422;27;20159;-66
2022/01/11 06:39:04;;;;;;;63.40;27.43;;;-4.30;99.90;;;;;;5182021;27;20482;-66
2022/01/11 06:41:32;;;;;;;66.33;26.87;;;-4.30;99.90;;;;;;5181928;27;20159;-66
2022/01/11 06:43:59;;;;;;;79.87;28.43;;;-4.30;99.90;;;;;;5201453;27;20448;-66
2022/01/11 06:46:28;;;;;;;73.20;28.33;;;-4.30;99.90;;;;;;5182244;27;20490;-65
2022/01/11 06:48:57;;;;;;;75.53;28.97;;;-4.30;99.90;;;;;;5201023;27;20153;-66
2022/01/11 06:51:24;;;;;;;74.40;29.37;;;-4.40;99.90;;;;;;5181239;27;20148;-66
2022/01/11 06:53:51;;;;;;;74.23;27.37;;;-4.50;99.90;;;;;;5182538;27;20159;-66
2022/01/11 06:56:20;;;;;;;74.33;27.63;;;-4.50;99.90;;;;;;5181414;27;20154;-66
2022/01/11 06:58:47;;;;;;;71.23;28.30;;;-4.60;99.90;;;;;;5181662;27;20458;-66
2022/01/11 07:01:14;;;;;;;76.43;28.97;;;-4.70;99.90;;;;;;5181600;27;20516;-66
2022/01/11 07:03:42;;;;;;;78.10;29.27;;;-4.80;99.90;;;;;;5201752;27;20131;-66
2022/01/11 07:06:12;;;;;;;79.43;29.37;;;-4.80;99.90;;;;;;5182201;27;20163;-66
2022/01/11 07:08:46;;;;;;;87.27;30.77;;;-4.80;99.90;;;;;;5182289;27;20139;-66
2022/01/11 07:11:18;;;;;;;80.17;30.07;;;-4.80;99.90;;;;;;5181921;27;20147;-66
2022/01/11 07:13:52;;;;;;;83.17;30.60;;;-4.80;99.90;;;;;;5201323;27;20160;-66
2022/01/11 07:16:20;;;;;;;81.43;31.47;;;-4.90;99.90;;;;;;5181992;27;20140;-66
2022/01/11 07:18:49;;;;;;;85.50;32.03;;;-5.10;99.90;;;;;;5181307;27;20152;-66
2022/01/11 07:21:23;;;;;;;85.50;30.90;;;-5.10;99.90;;;;;;5181271;27;20157;-66
2022/01/11 07:23:59;;;;;;;100.30;31.10;;;-5.20;99.90;;;;;;5201330;27;20108;-65
2022/01/11 07:26:27;;;;;;;77.10;31.67;;;-5.20;99.90;;;;;;5201356;27;20096;-65
2022/01/11 07:29:05;;;;;;;81.97;30.73;;;-5.10;99.90;;;;;;5181810;27;20218;-65
2022/01/11 07:31:36;;;;;;;87.97;31.53;;;-5.10;99.90;;;;;;5181757;27;20187;-66
2022/01/11 07:34:05;;;;;;;79.53;30.93;;;-5.20;99.90;;;;;;5182214;27;20147;-66
2022/01/11 07:36:32;;;;;;;80.80;30.10;;;-5.20;99.90;;;;;;5181991;27;20147;-65
2022/01/11 07:38:59;;;;;;;80.63;28.90;;;-5.20;99.90;;;;;;5181143;27;20147;-66
2022/01/11 07:41:26;;;;;;;60.40;24.00;;;-5.10;99.90;;;;;;5200524;27;20157;-66
2022/01/11 07:43:54;;;;;;;64.80;24.47;;;-5.20;99.90;;;;;;5182762;27;20231;-66
2022/01/11 07:46:21;;;;;;;64.00;24.07;;;-5.10;99.90;;;;;;5181287;27;20186;-66
2022/01/11 07:48:49;;;;;;;57.57;22.13;;;-5.10;99.90;;;;;;5181679;27;20392;-66
2022/01/11 07:51:16;;;;;;;58.90;22.13;;;-5.10;99.90;;;;;;5181647;27;20139;-66
2022/01/11 07:53:43;;;;;;;59.57;21.60;;;-5.00;99.90;;;;;;5183344;27;20150;-66
2022/01/11 07:56:10;;;;;;;58.40;22.10;;;-5.00;99.90;;;;;;5200715;27;20141;-66
2022/01/11 07:58:38;;;;;;;55.73;21.57;;;-5.00;99.90;;;;;;5201744;27;20123;-66
2022/01/11 08:01:05;;;;;;;54.30;20.80;;;-4.90;99.90;;;;;;5182270;27;20143;-66
2022/01/11 08:03:33;;;;;;;57.93;20.97;;;-4.90;99.90;;;;;;5183562;27;20139;-66
2022/01/11 08:06:00;;;;;;;56.33;20.50;;;-4.70;99.90;;;;;;5181550;27;20203;-66
2022/01/11 08:08:28;;;;;;;55.87;20.60;;;-4.60;99.90;;;;;;5181585;27;20143;-66
2022/01/11 08:10:56;;;;;;;51.97;20.60;;;-4.60;99.90;;;;;;5183013;27;20528;-66
2022/01/11 08:13:23;;;;;;;55.20;19.07;;;-4.50;99.90;;;;;;5182022;27;20159;-66
2022/01/11 08:15:51;;;;;;;55.33;20.80;;;-4.40;99.90;;;;;;5181155;27;20178;-66
2022/01/11 08:18:18;;;;;;;56.83;21.33;;;-4.30;99.90;;;;;;5200946;27;20294;-66
2022/01/11 08:20:47;;;;;;;58.83;21.00;;;-4.30;99.90;;;;;;5181137;27;20156;-66
2022/01/11 08:23:14;;;;;;;60.60;21.63;;;-4.20;99.90;;;;;;5181926;27;20174;-66
2022/01/11 08:25:42;;;;;;;59.43;21.07;;;-4.10;99.90;;;;;;5183599;27;20143;-66
2022/01/11 08:28:10;;;;;;;55.30;20.20;;;-4.00;99.90;;;;;;5181406;27;20145;-66
2022/01/11 08:30:37;;;;;;;57.13;20.30;;;-3.90;99.90;;;;;;5199912;27;20393;-66
2022/01/11 08:33:04;;;;;;;54.77;20.43;;;-3.80;99.90;;;;;;5181181;27;20143;-66
2022/01/11 08:35:33;;;;;;;57.37;20.73;;;-3.70;99.90;;;;;;5200999;27;20139;-66
2022/01/11 08:38:05;;;;;;;55.20;21.33;;;-3.60;99.90;;;;;;5181147;27;20151;-66
2022/01/11 08:40:32;;;;;;;56.80;21.40;;;-3.50;99.90;;;;;;5200707;27;20120;-66
2022/01/11 08:43:03;;;;;;;54.70;21.57;;;-3.40;99.90;;;;;;5201524;27;20170;-66
2022/01/11 08:45:34;;;;;;;50.83;19.97;;;-3.40;99.90;;;;;;5181292;27;20139;-65
2022/01/11 08:48:02;;;;;;;50.23;19.17;;;-3.30;99.90;;;;;;5180952;27;20159;-66
2022/01/11 08:50:35;;;;;;;55.03;20.50;;;-3.30;99.90;;;;;;5180819;27;20183;-66
2022/01/11 08:53:03;;;;;;;51.70;20.23;;;-3.30;99.90;;;;;;5180994;27;20159;-66
2022/01/11 08:55:30;;;;;;;55.00;19.93;;;-3.30;99.90;;;;;;5182303;27;20228;-66
2022/01/11 08:57:59;;;;;;;48.87;18.83;;;-3.20;99.90;;;;;;5180540;27;20146;-65
2022/01/11 09:00:27;;;;;;;46.80;18.87;;;-3.20;99.90;;;;;;5181269;27;20517;-65
2022/01/11 09:02:54;;;;;;;49.27;19.80;;;-3.10;99.90;;;;;;5181178;27;20198;-65
2022/01/11 09:05:22;;;;;;;50.23;19.37;;;-3.10;99.90;;;;;;5181324;27;20215;-66
2022/01/11 09:07:51;;;;;;;53.37;20.53;;;-3.00;99.90;;;;;;5181243;27;20165;-65
2022/01/11 09:10:20;;;;;;;51.17;19.57;;;-2.90;99.90;;;;;;5181467;27;20154;-65
2022/01/11 09:12:47;;;;;;;51.53;19.80;;;-2.80;99.90;;;;;;5182389;27;20161;-65
2022/01/11 09:15:15;;;;;;;49.03;20.50;;;-2.90;99.90;;;;;;5180976;27;20143;-66
2022/01/11 09:17:43;;;;;;;52.50;20.40;;;-2.80;99.90;;;;;;5200351;27;20195;-65
2022/01/11 09:20:12;;;;;;;56.13;20.03;;;-2.70;99.90;;;;;;5182228;27;20212;-66
2022/01/11 09:22:41;;;;;;;50.73;20.40;;;-2.70;99.90;;;;;;5200000;27;20179;-66
2022/01/11 09:25:09;;;;;;;55.50;21.37;;;-2.70;99.90;;;;;;5182332;27;20166;-66
2022/01/11 09:27:37;;;;;;;54.20;20.97;;;-2.70;99.90;;;;;;5181261;27;20143;-66
2022/01/11 09:30:08;;;;;;;53.77;21.33;;;-2.60;99.90;;;;;;5182849;27;20139;-66
2022/01/11 09:32:37;;;;;;;57.20;20.63;;;-2.50;99.90;;;;;;5201249;27;20171;-66
2022/01/11 09:35:07;;;;;;;56.50;20.93;;;-2.40;99.90;;;;;;5180763;27;20154;-66
2022/01/11 09:37:34;;;;;;;55.57;21.00;;;-2.40;99.90;;;;;;5181329;27;20202;-66
2022/01/11 09:40:08;;;;;;;57.30;21.30;;;-2.40;99.90;;;;;;5181046;27;20218;-66
2022/01/11 09:42:36;;;;;;;51.30;20.43;;;-2.40;99.90;;;;;;5180538;27;20190;-66
2022/01/11 09:45:07;;;;;;;50.50;20.70;;;-2.30;99.90;;;;;;5182579;27;20166;-66
2022/01/11 09:47:35;;;;;;;49.90;19.60;;;-2.20;99.90;;;;;;5182987;27;20159;-66
2022/01/11 09:50:04;;;;;;;51.93;19.50;;;-2.10;99.90;;;;;;5180686;27;20199;-66
2022/01/11 09:52:32;;;;;;;51.53;19.97;;;-2.00;99.90;;;;;;5180809;27;20222;-66
2022/01/11 09:54:59;;;;;;;45.63;19.83;;;-2.00;99.90;;;;;;5181565;27;20231;-66
2022/01/11 09:57:27;;;;;;;50.67;20.37;;;-1.80;99.90;;;;;;5201576;27;20128;-66
2022/01/11 09:59:59;;;;;;;53.33;20.93;;;-1.80;99.90;;;;;;5199998;27;20187;-66
2022/01/11 10:02:27;;;;;;;49.87;21.20;;;-1.70;99.90;;;;;;5182030;27;20159;-66
2022/01/11 10:04:58;;;;;;;54.87;20.40;;;-1.70;99.90;;;;;;5182054;27;20158;-66
2022/01/11 10:07:31;;;;;;;53.90;20.03;;;-1.70;99.90;;;;;;5199527;27;20169;-66
2022/01/11 10:09:58;;;;;;;53.43;21.37;;;-1.60;99.90;;;;;;5180589;27;20147;-66
2022/01/11 10:12:34;;;;;;;52.77;21.07;;;-1.70;99.90;;;;;;5180855;27;20195;-66
2022/01/11 10:15:02;;;;;;;51.40;21.07;;;-1.70;99.90;;;;;;5199507;27;20135;-66
2022/01/11 10:17:37;;;;;;;52.33;19.83;;;-1.70;99.90;;;;;;5180588;27;20153;-66
2022/01/11 10:20:22;;;;;;;54.90;21.50;;;-1.60;99.90;;;;;;5163115;27;20505;-66
2022/01/11 10:22:54;;;;;;;53.53;21.07;;;-1.60;99.90;;;;;;5180554;27;20195;-66
2022/01/11 10:25:22;;;;;;;53.27;21.27;;;-1.60;99.90;;;;;;5179783;27;20166;-66
2022/01/11 10:28:01;;;;;;;49.50;21.10;;;-1.60;99.90;;;;;;5199316;27;20120;-66
2022/01/11 10:30:29;;;;;;;49.80;20.33;;;-1.60;99.90;;;;;;5201647;27;20167;-66
2022/01/11 10:33:00;;;;;;;52.97;20.50;;;-1.60;99.90;;;;;;5182292;27;20373;-66
2022/01/11 10:35:32;;;;;;;57.93;21.63;;;-1.60;99.90;;;;;;5201587;27;20123;-66
2022/01/11 10:38:22;;;;;;;51.23;21.17;;;-1.60;99.90;;;;;;5199519;27;20513;-67
2022/01/11 10:40:50;;;;;;;54.93;21.93;;;-1.60;99.90;;;;;;5200975;27;20116;-66
2022/01/11 10:43:21;;;;;;;53.07;20.13;;;-1.60;99.90;;;;;;5199609;27;20147;-66
2022/01/11 10:45:55;;;;;;;52.90;20.33;;;-1.60;99.90;;;;;;5180870;27;20164;-66
2022/01/11 10:48:27;;;;;;;54.87;21.90;;;-1.50;99.90;;;;;;5200023;27;20127;-66
2022/01/11 10:51:02;;;;;;;56.63;22.23;;;-1.50;99.90;;;;;;5180601;27;20199;-66
2022/01/11 10:53:39;;;;;;;56.30;21.63;;;-1.50;99.90;;;;;;5200329;27;20111;-66
2022/01/11 10:56:08;;;;;;;52.57;21.10;;;-1.50;99.90;;;;;;5183658;27;20139;-66
2022/01/11 10:59:08;;;;;;;50.03;20.33;;;-1.50;99.90;;;;;;5201312;27;20161;-65
2022/01/11 11:01:38;;;;;;;54.40;21.97;;;-1.50;99.90;;;;;;5200767;27;20141;-66
2022/01/11 11:04:32;;;;;;;53.43;21.70;;;-1.50;99.90;;;;;;5182338;27;20139;-65
2022/01/11 11:07:14;;;;;;;50.60;20.43;;;-1.50;99.90;;;;;;5183948;27;20143;-66
2022/01/11 11:09:52;;;;;;;56.30;21.93;;;-1.60;99.90;;;;;;5182926;27;20166;-66
2022/01/11 11:12:22;;;;;;;52.73;21.17;;;-1.60;99.90;;;;;;5182845;27;20142;-66
2022/01/11 11:14:57;;;;;;;55.17;20.27;;;-1.60;99.90;;;;;;5182115;27;20194;-66
2022/01/11 11:17:30;;;;;;;53.67;21.23;;;-1.50;99.90;;;;;;5182394;27;20239;-66
2022/01/11 11:20:01;;;;;;;51.57;20.87;;;-1.50;99.90;;;;;;5183848;27;20171;-66
2022/01/11 11:22:29;;;;;;;52.70;21.37;;;-1.40;99.90;;;;;;5202841;27;20152;-65
2022/01/11 11:24:57;;;;;;;49.83;20.07;;;-1.40;99.90;;;;;;5181662;27;20191;-65
2022/01/11 11:27:28;;;;;;;48.97;20.63;;;-1.30;99.90;;;;;;5182056;27;20146;-65
2022/01/11 11:29:56;;;;;;;50.57;20.07;;;-1.40;99.90;;;;;;5202491;27;20157;-66
2022/01/11 11:32:23;;;;;;;45.57;19.80;;;-1.40;99.90;;;;;;5182094;27;20155;-66
2022/01/11 11:34:50;;;;;;;48.97;21.27;;;-1.40;99.90;;;;;;5203200;27;20347;-66
2022/01/11 11:37:38;;;;;;;52.70;21.27;;;-1.30;99.90;;;;;;5181450;27;20221;-66
2022/01/11 11:40:14;;;;;;;47.40;20.30;;;-1.30;99.90;;;;;;5201335;27;20126;-66
2022/01/11 11:42:42;;;;;;;50.40;21.07;;;-1.40;99.90;;;;;;5203217;27;20126;-65
2022/01/11 11:45:25;;;;;;;51.07;21.13;;;-1.50;99.90;;;;;;5181503;27;20170;-66
2022/01/11 11:48:04;;;;;;;51.77;21.20;;;-1.50;99.90;;;;;;5181516;27;20187;-66
2022/01/11 11:50:32;;;;;;;56.47;21.33;;;-1.50;99.90;;;;;;5200647;27;20179;-66
2022/01/11 11:53:00;;;;;;;52.40;21.83;;;-1.50;99.90;;;;;;5181020;27;20151;-66
2022/01/11 11:55:33;;;;;;;53.83;21.27;;;-1.60;99.90;;;;;;5202469;27;20225;-66
2022/01/11 11:58:07;;;;;;;52.73;20.87;;;-1.50;99.90;;;;;;5181372;27;20191;-66
2022/01/11 12:00:45;;;;;;;54.53;20.77;;;-1.30;99.90;;;;;;5182152;27;20527;-66
2022/01/11 12:03:27;;;;;;;49.83;21.83;;;-1.30;99.90;;;;;;5181472;27;20169;-66
2022/01/11 12:05:55;;;;;;;52.87;21.63;;;-1.30;99.90;;;;;;5181167;27;20218;-66
2022/01/11 12:08:36;;;;;;;51.67;20.33;;;-1.50;99.90;;;;;;5181316;27;20190;-66
2022/01/11 12:11:10;;;;;;;52.90;20.63;;;-1.50;99.90;;;;;;5200384;27;20176;-66
2022/01/11 12:13:55;;;;;;;50.40;20.70;;;-1.40;99.90;;;;;;5181414;27;20207;-66
2022/01/11 12:16:30;;;;;;;57.07;21.83;;;-1.20;99.90;;;;;;5181642;27;20222;-66
2022/01/11 12:19:45;;;;;;;50.00;20.93;;;-1.10;99.90;;;;;;5155890;27;20213;-65
2022/01/11 12:22:13;;;;;;;54.13;22.33;;;-1.10;99.90;;;;;;5199591;27;20198;-66
2022/01/11 12:24:45;;;;;;;55.80;22.80;;;-1.00;99.90;;;;;;5181181;27;20210;-65
2022/01/11 12:27:16;;;;;;;52.27;21.70;;;-0.90;99.90;;;;;;5181014;27;20171;-66
2022/01/11 12:29:57;;;;;;;52.33;22.47;;;-0.90;99.90;;;;;;5181694;27;20147;-66
2022/01/11 12:32:26;;;;;;;52.67;20.87;;;-0.90;99.90;;;;;;5200606;27;20154;-66
2022/01/11 12:35:10;;;;;;;48.17;19.53;;;-0.80;99.90;;;;;;5182230;27;20131;-66
2022/01/11 12:37:44;;;;;;;43.87;19.33;;;-0.90;99.90;;;;;;5179901;27;20171;-66
2022/01/11 12:40:29;;;;;;;48.50;19.97;;;-0.90;99.90;;;;;;5200636;27;20146;-66
2022/01/11 12:43:06;;;;;;;47.73;20.33;;;-0.80;99.90;;;;;;5181063;27;20145;-66
2022/01/11 12:45:55;;;;;;;44.97;19.87;;;-0.80;99.90;;;;;;5181231;27;20147;-66